KPIM/PIM METAR and TAF weather

Enter ICAO airport designator
Station Type Date Time Source
KPIM METAR 2019/06/16 20:15 UTC NOAA

KPIM 162015Z AUTO 14005KT 10SM SCT048 32/18 A3003 RMK AO2 T03150183 PWINO


Station Type Date Time Source
KPIM Decoded METAR 2019/06/16 20:15 UTC NOAA

Station name not available
Jun 16, 2019 - 04:15 PM EDT / 2019.06.16 2015 UTC
Wind: from the SE (140 degrees) at 6 MPH (5 KT):0
Visibility: 10 mile(s):0
Sky conditions: partly cloudy
Temperature: 88.7 F (31.5 C)
Dew Point: 64.9 F (18.3 C)
Relative Humidity: 45%
Pressure (altimeter): 30.03 in. Hg (1016 hPa)
ob: KPIM 162015Z AUTO 14005KT 10SM SCT048 32/18 A3003 RMK AO2 T03150183 PWINO
cycle: 20

Station Type Date Time Source
KPIM TAF UTC NOAA

Error!

Example: see airport list